Terminal Aerodrome Forecast
Issued by NWS Brownsville, TX

Current Version | Previous Version | Text Only | Print | Product List | Glossary On
Versions: 1 2 3 4 5 6 7 8 9 10 11 12 13 14 15 16 17 18 19 20 21 22 23 24
000
FTUS44 KBRO 200237 AAB
TAFBRO
TAF AMD
KBRO 200237Z 2003/2024 13016G23KT P6SM BKN009
     FM200600 17005KT 5SM BR VCSH OVC015
      TEMPO 2008/2012 VRB15G35KT 3SM +TSRA SQ OVC009CB
     FM201200 VRB05KT 4SM TSRA OVC015CB
     FM201500 16008KT P6SM VCTS OVC025CB
     FM201800 24010KT P6SM VCSH BKN050
     FM202100 31012KT P6SM SCT050 BKN100=

USA.gov is the U.S. government's official web portal to all federal, state and local government web resources and services.